sensor_id;sensor_type;location;lat;lon;timestamp;pressure;altitude;pressure_sealevel;temperature;humidity
54503;BME280;40411;50.090;21.954;2022-08-11T00:05:09;151928.06;;;11.46;100.00
54503;BME280;40411;50.090;21.954;2022-08-11T00:07:53;151951.09;;;11.55;100.00
54503;BME280;40411;50.090;21.954;2022-08-11T00:10:22;151952.34;;;11.55;100.00
54503;BME280;40411;50.090;21.954;2022-08-11T00:15:27;151954.94;;;11.56;100.00
54503;BME280;40411;50.090;21.954;2022-08-11T00:17:58;151929.31;;;11.46;100.00
54503;BME280;40411;50.090;21.954;2022-08-11T00:20:30;151943.41;;;11.52;100.00
54503;BME280;40411;50.090;21.954;2022-08-11T00:23:08;151976.72;;;11.65;100.00
54503;BME280;40411;50.090;21.954;2022-08-11T00:25:40;151981.81;;;11.67;100.00
54503;BME280;40411;50.090;21.954;2022-08-11T00:28:29;151948.53;;;11.54;100.00
54503;BME280;40411;50.090;21.954;2022-08-11T00:30:58;151984.38;;;11.68;100.00
54503;BME280;40411;50.090;21.954;2022-08-11T00:33:33;151949.81;;;11.54;100.00
54503;BME280;40411;50.090;21.954;2022-08-11T00:36:02;151906.28;;;11.37;100.00
54503;BME280;40411;50.090;21.954;2022-08-11T00:38:31;151847.38;;;11.13;100.00
54503;BME280;40411;50.090;21.954;2022-08-11T00:54:17;151752.66;;;10.76;100.00
54503;BME280;40411;50.090;21.954;2022-08-11T01:00:14;151769.28;;;10.82;100.00
54503;BME280;40411;50.090;21.954;2022-08-11T01:46:05;151627.22;;;10.25;100.00
54503;BME280;40411;50.090;21.954;2022-08-11T01:54:17;151677.16;;;10.45;100.00
54503;BME280;40411;50.090;21.954;2022-08-11T01:57:08;151670.75;;;10.43;100.00
54503;BME280;40411;50.090;21.954;2022-08-11T01:59:46;151663.06;;;10.40;100.00
54503;BME280;40411;50.090;21.954;2022-08-11T02:02:28;151627.22;;;10.25;100.00
54503;BME280;40411;50.090;21.954;2022-08-11T02:10:54;151560.66;;;9.99;100.00
54503;BME280;40411;50.090;21.954;2022-08-11T02:13:52;151599.06;;;10.14;100.00
54503;BME280;40411;50.090;21.954;2022-08-11T02:16:46;151609.28;;;10.18;100.00
54503;BME280;40411;50.090;21.954;2022-08-11T02:22:15;151613.13;;;10.20;100.00
54503;BME280;40411;50.090;21.954;2022-08-11T02:27:52;151551.72;;;9.95;100.00
54503;BME280;40411;50.090;21.954;2022-08-11T02:30:24;151553.00;;;9.96;100.00
54503;BME280;40411;50.090;21.954;2022-08-11T02:33:15;151588.78;;;10.10;100.00
54503;BME280;40411;50.090;21.954;2022-08-11T02:38:18;151622.06;;;10.23;100.00
54503;BME280;40411;50.090;21.954;2022-08-11T02:41:04;151651.53;;;10.35;100.00
54503;BME280;40411;50.090;21.954;2022-08-11T02:49:57;151650.28;;;10.35;100.00
54503;BME280;40411;50.090;21.954;2022-08-11T02:52:30;151660.47;;;10.39;100.00
54503;BME280;40411;50.090;21.954;2022-08-11T02:58:12;151619.53;;;10.22;100.00
54503;BME280;40411;50.090;21.954;2022-08-11T03:01:05;151565.78;;;10.01;100.00
54503;BME280;40411;50.090;21.954;2022-08-11T03:03:46;151563.19;;;10.00;100.00
54503;BME280;40411;50.090;21.954;2022-08-11T03:06:38;151535.06;;;9.89;100.00
54503;BME280;40411;50.090;21.954;2022-08-11T03:09:15;151565.78;;;10.01;100.00
54503;BME280;40411;50.090;21.954;2022-08-11T03:12:00;151568.31;;;10.02;100.00
54503;BME280;40411;50.090;21.954;2022-08-11T03:14:54;151573.47;;;10.04;100.00
54503;BME280;40411;50.090;21.954;2022-08-11T03:17:52;151600.34;;;10.15;100.00
54503;BME280;40411;50.090;21.954;2022-08-11T03:23:30;151637.47;;;10.29;100.00
54503;BME280;40411;50.090;21.954;2022-08-11T03:26:04;151637.47;;;10.29;100.00
54503;BME280;40411;50.090;21.954;2022-08-11T03:28:44;151633.66;;;10.28;100.00
54503;BME280;40411;50.090;21.954;2022-08-11T03:31:26;151611.81;;;10.19;100.00
54503;BME280;40411;50.090;21.954;2022-08-11T03:34:05;151641.31;;;10.31;100.00
54503;BME280;40411;50.090;21.954;2022-08-11T03:42:32;151561.94;;;9.99;100.00
54503;BME280;40411;50.090;21.954;2022-08-11T03:45:27;151581.13;;;10.07;100.00
54503;BME280;40411;50.090;21.954;2022-08-11T04:11:00;151837.16;;;11.09;100.00
54503;BME280;40411;50.090;21.954;2022-08-11T04:19:53;151943.41;;;11.52;100.00
54503;BME280;40411;50.090;21.954;2022-08-11T04:33:40;152116.38;;;12.21;100.00
54503;BME280;40411;50.090;21.954;2022-08-11T05:14:58;152568.97;;;14.01;100.00
54503;BME280;40411;50.090;21.954;2022-08-11T05:20:42;152674.16;;;14.43;100.00
54503;BME280;40411;50.090;21.954;2022-08-11T05:23:33;152785.88;;;14.88;100.00
54503;BME280;40411;50.090;21.954;2022-08-11T05:26:19;152865.44;;;15.19;100.00
54503;BME280;40411;50.090;21.954;2022-08-11T05:29:27;152965.56;;;15.59;100.00
54503;BME280;40411;50.090;21.954;2022-08-11T05:32:18;152973.25;;;15.62;100.00
54503;BME280;40411;50.090;21.954;2022-08-11T05:35:05;153099.16;;;16.13;100.00
54503;BME280;40411;50.090;21.954;2022-08-11T05:37:37;153096.59;;;16.12;100.00
54503;BME280;40411;50.090;21.954;2022-08-11T05:40:08;153155.69;;;16.35;100.00
54503;BME280;40411;50.090;21.954;2022-08-11T05:42:59;153231.50;;;16.65;100.00
54503;BME280;40411;50.090;21.954;2022-08-11T05:45:56;153321.50;;;17.01;100.00
54503;BME280;40411;50.090;21.954;2022-08-11T05:48:42;153360.09;;;17.16;100.00
54503;BME280;40411;50.090;21.954;2022-08-11T05:51:40;153402.50;;;17.33;100.00
54503;BME280;40411;50.090;21.954;2022-08-11T05:54:27;153425.63;;;17.42;100.00
54503;BME280;40411;50.090;21.954;2022-08-11T05:57:23;153461.59;;;17.57;100.00
54503;BME280;40411;50.090;21.954;2022-08-11T05:59:59;153561.94;;;17.97;100.00
54503;BME280;40411;50.090;21.954;2022-08-11T06:02:26;153592.81;;;18.09;100.00
54503;BME280;40411;50.090;21.954;2022-08-11T06:04:57;153659.69;;;18.36;100.00
54503;BME280;40411;50.090;21.954;2022-08-11T06:07:31;153663.56;;;18.37;100.00
54503;BME280;40411;50.090;21.954;2022-08-11T06:10:00;153659.69;;;18.36;100.00
54503;BME280;40411;50.090;21.954;2022-08-11T06:12:30;153632.72;;;18.25;100.00
54503;BME280;40411;50.090;21.954;2022-08-11T06:15:00;153716.28;;;18.58;100.00
54503;BME280;40411;50.090;21.954;2022-08-11T06:17:29;153793.56;;;18.89;100.00
54503;BME280;40411;50.090;21.954;2022-08-11T06:20:00;153807.72;;;18.94;100.00
54503;BME280;40411;50.090;21.954;2022-08-11T06:22:27;153878.47;;;19.23;100.00
54503;BME280;40411;50.090;21.954;2022-08-11T06:24:57;154007.22;;;19.74;100.00
54503;BME280;40411;50.090;21.954;2022-08-11T06:27:26;154069.03;;;19.98;100.00
54503;BME280;40411;50.090;21.954;2022-08-11T06:29:55;154025.28;;;19.81;100.00
54503;BME280;40411;50.090;21.954;2022-08-11T06:32:32;154090.91;;;20.07;100.00
54503;BME280;40411;50.090;21.954;2022-08-11T06:40:55;154293.16;;;20.87;100.00
54503;BME280;40411;50.090;21.954;2022-08-11T06:46:14;154362.72;;;21.15;100.00
54503;BME280;40411;50.090;21.954;2022-08-11T06:48:43;154483.91;;;21.63;100.00
54503;BME280;40411;50.090;21.954;2022-08-11T06:51:10;154340.84;;;21.06;100.00
54503;BME280;40411;50.090;21.954;2022-08-11T06:53:48;154329.22;;;21.02;100.00
54503;BME280;40411;50.090;21.954;2022-08-11T06:56:21;154382.03;;;21.23;100.00
54503;BME280;40411;50.090;21.954;2022-08-11T06:59:09;154580.56;;;22.01;100.00
54503;BME280;40411;50.090;21.954;2022-08-11T07:01:56;154717.25;;;22.56;97.67
54503;BME280;40411;50.090;21.954;2022-08-11T07:04:45;154772.72;;;22.78;98.58
54503;BME280;40411;50.090;21.954;2022-08-11T07:10:29;154908.16;;;23.31;100.00
54503;BME280;40411;50.090;21.954;2022-08-11T07:13:18;155118.53;;;24.15;98.35
54503;BME280;40411;50.090;21.954;2022-08-11T07:16:05;155081.13;;;24.00;89.92
54503;BME280;40411;50.090;21.954;2022-08-11T07:18:34;155340.63;;;25.03;87.81
54503;BME280;40411;50.090;21.954;2022-08-11T07:21:33;155398.78;;;25.26;80.56
54503;BME280;40411;50.090;21.954;2022-08-11T07:24:22;155223.13;;;24.56;84.64
54503;BME280;40411;50.090;21.954;2022-08-11T07:27:13;155349.66;;;25.06;81.28
54503;BME280;40411;50.090;21.954;2022-08-11T07:30:03;155229.59;;;24.59;82.54
54503;BME280;40411;50.090;21.954;2022-08-11T07:32:33;155221.84;;;24.56;85.95
54503;BME280;40411;50.090;21.954;2022-08-11T07:35:14;155343.19;;;25.04;84.86
54503;BME280;40411;50.090;21.954;2022-08-11T07:37:47;155282.53;;;24.80;83.83
54503;BME280;40411;50.090;21.954;2022-08-11T07:40:22;155761.88;;;26.69;76.88
54503;BME280;40411;50.090;21.954;2022-08-11T07:42:49;155487.91;;;25.61;78.56
54503;BME280;40411;50.090;21.954;2022-08-11T07:45:17;155840.72;;;27.01;74.25
54503;BME280;40411;50.090;21.954;2022-08-11T07:48:01;155958.41;;;27.47;78.87
54503;BME280;40411;50.090;21.954;2022-08-11T07:50:46;155379.38;;;25.18;79.20
54503;BME280;40411;50.090;21.954;2022-08-11T07:53:33;155369.03;;;25.14;77.34
54503;BME280;40411;50.090;21.954;2022-08-11T07:56:03;155350.94;;;25.07;79.25
54503;BME280;40411;50.090;21.954;2022-08-11T07:58:34;155283.81;;;24.80;78.42
54503;BME280;40411;50.090;21.954;2022-08-11T08:01:23;155967.44;;;27.51;68.79
54503;BME280;40411;50.090;21.954;2022-08-11T08:04:10;156195.06;;;28.41;56.68
54503;BME280;40411;50.090;21.954;2022-08-11T08:06:56;156483.69;;;29.55;56.20
54503;BME280;40411;50.090;21.954;2022-08-11T08:09:42;156350.34;;;29.02;49.31
54503;BME280;40411;50.090;21.954;2022-08-11T08:12:28;156689.56;;;30.36;48.18
54503;BME280;40411;50.090;21.954;2022-08-11T08:15:14;156746.53;;;30.59;47.95
54503;BME280;40411;50.090;21.954;2022-08-11T08:18:02;156690.84;;;30.37;46.21
54503;BME280;40411;50.090;21.954;2022-08-11T08:20:37;156470.72;;;29.50;48.93
54503;BME280;40411;50.090;21.954;2022-08-11T08:23:05;156362.06;;;29.07;47.64
54503;BME280;40411;50.090;21.954;2022-08-11T08:25:34;156298.59;;;28.82;52.43
54503;BME280;40411;50.090;21.954;2022-08-11T08:28:25;155657.16;;;26.28;57.74
54503;BME280;40411;50.090;21.954;2022-08-11T08:30:50;155388.47;;;25.22;62.00
54503;BME280;40411;50.090;21.954;2022-08-11T08:33:20;155476.25;;;25.56;63.53
54503;BME280;40411;50.090;21.954;2022-08-11T08:35:50;156028.19;;;27.75;56.53
54503;BME280;40411;50.090;21.954;2022-08-11T08:38:16;156602.81;;;30.02;49.32
54503;BME280;40411;50.090;21.954;2022-08-11T08:40:45;156527.72;;;29.72;48.86
54503;BME280;40411;50.090;21.954;2022-08-11T08:43:15;156268.88;;;28.70;49.73
54503;BME280;40411;50.090;21.954;2022-08-11T08:45:43;156242.97;;;28.60;51.89
54503;BME280;40411;50.090;21.954;2022-08-11T08:48:12;155924.78;;;27.34;54.09
54503;BME280;40411;50.090;21.954;2022-08-11T08:51:02;155863.97;;;27.10;54.72
54503;BME280;40411;50.090;21.954;2022-08-11T08:53:50;156574.31;;;29.91;54.92
54503;BME280;40411;50.090;21.954;2022-08-11T08:56:17;156393.09;;;29.19;49.86
54503;BME280;40411;50.090;21.954;2022-08-11T08:58:47;155655.88;;;26.27;54.31
54503;BME280;40411;50.090;21.954;2022-08-11T09:01:15;156166.59;;;28.29;50.24
54503;BME280;40411;50.090;21.954;2022-08-11T09:03:45;156038.53;;;27.79;51.53
54503;BME280;40411;50.090;21.954;2022-08-11T09:06:12;155844.56;;;27.02;55.37
54503;BME280;40411;50.090;21.954;2022-08-11T09:08:42;155636.50;;;26.20;55.61
54503;BME280;40411;50.090;21.954;2022-08-11T09:11:09;155937.72;;;27.39;51.53
54503;BME280;40411;50.090;21.954;2022-08-11T09:13:54;155898.91;;;27.24;50.32
54503;BME280;40411;50.090;21.954;2022-08-11T09:16:21;156315.41;;;28.88;48.63
54503;BME280;40411;50.090;21.954;2022-08-11T09:18:48;156338.72;;;28.98;45.65
54503;BME280;40411;50.090;21.954;2022-08-11T09:21:15;156126.50;;;28.14;46.32
54503;BME280;40411;50.090;21.954;2022-08-11T09:23:45;155549.94;;;25.85;53.89
54503;BME280;40411;50.090;21.954;2022-08-11T09:26:31;155909.28;;;27.28;50.60
54503;BME280;40411;50.090;21.954;2022-08-11T09:29:16;156046.34;;;27.82;50.60
54503;BME280;40411;50.090;21.954;2022-08-11T09:31:42;155445.28;;;25.44;57.10
54503;BME280;40411;50.090;21.954;2022-08-11T09:34:13;155217.97;;;24.54;59.46
54503;BME280;40411;50.090;21.954;2022-08-11T09:36:40;155219.28;;;24.55;60.16
54503;BME280;40411;50.090;21.954;2022-08-11T09:39:30;155298.03;;;24.86;59.80
54503;BME280;40411;50.090;21.954;2022-08-11T09:42:16;155175.31;;;24.37;60.56
54503;BME280;40411;50.090;21.954;2022-08-11T09:44:45;155103.06;;;24.08;62.27
54503;BME280;40411;50.090;21.954;2022-08-11T09:47:20;155153.38;;;24.28;63.12
54503;BME280;40411;50.090;21.954;2022-08-11T09:49:47;155030.81;;;23.80;65.69
54503;BME280;40411;50.090;21.954;2022-08-11T09:52:14;154841.13;;;23.05;66.32
54503;BME280;40411;50.090;21.954;2022-08-11T09:54:41;154748.22;;;22.68;70.62
54503;BME280;40411;50.090;21.954;2022-08-11T09:57:08;154629.59;;;22.21;74.67
54503;BME280;40411;50.090;21.954;2022-08-11T09:59:53;154532.88;;;21.82;75.56
54503;BME280;40411;50.090;21.954;2022-08-11T10:02:24;154463.28;;;21.55;76.62
54503;BME280;40411;50.090;21.954;2022-08-11T10:04:55;154459.38;;;21.53;78.43
54503;BME280;40411;50.090;21.954;2022-08-11T10:07:44;154532.88;;;21.82;76.35
54503;BME280;40411;50.090;21.954;2022-08-11T10:10:18;154877.22;;;23.19;73.49
54503;BME280;40411;50.090;21.954;2022-08-11T10:13:15;154954.63;;;23.50;69.68
54503;BME280;40411;50.090;21.954;2022-08-11T10:15:43;155048.84;;;23.87;67.91
54503;BME280;40411;50.090;21.954;2022-08-11T10:18:17;155238.63;;;24.62;64.24
54503;BME280;40411;50.090;21.954;2022-08-11T10:21:08;155242.50;;;24.64;62.97
54503;BME280;40411;50.090;21.954;2022-08-11T10:23:36;155168.88;;;24.35;62.69
54503;BME280;40411;50.090;21.954;2022-08-11T10:26:26;155074.66;;;23.97;66.09
54503;BME280;40411;50.090;21.954;2022-08-11T10:29:12;154768.81;;;22.76;66.67
54503;BME280;40411;50.090;21.954;2022-08-11T10:31:57;154685.06;;;22.43;67.95
54503;BME280;40411;50.090;21.954;2022-08-11T10:34:47;154593.47;;;22.06;68.17
54503;BME280;40411;50.090;21.954;2022-08-11T10:37:15;154608.94;;;22.13;71.76
54503;BME280;40411;50.090;21.954;2022-08-11T10:39:42;154627.00;;;22.20;72.02
54503;BME280;40411;50.090;21.954;2022-08-11T10:42:10;154643.78;;;22.26;71.76
54503;BME280;40411;50.090;21.954;2022-08-11T10:44:57;154668.25;;;22.36;73.44
54503;BME280;40411;50.090;21.954;2022-08-11T10:47:24;154766.25;;;22.75;74.49
54503;BME280;40411;50.090;21.954;2022-08-11T10:50:12;154869.50;;;23.16;73.43
54503;BME280;40411;50.090;21.954;2022-08-11T10:52:58;154811.41;;;22.93;70.91
54503;BME280;40411;50.090;21.954;2022-08-11T10:55:44;154964.94;;;23.54;71.60
54503;BME280;40411;50.090;21.954;2022-08-11T10:58:29;154924.97;;;23.38;71.61
54503;BME280;40411;50.090;21.954;2022-08-11T11:03:50;155043.72;;;23.85;69.55
54503;BME280;40411;50.090;21.954;2022-08-11T11:06:34;155217.97;;;24.54;67.41
54503;BME280;40411;50.090;21.954;2022-08-11T11:09:10;155265.72;;;24.73;65.71
54503;BME280;40411;50.090;21.954;2022-08-11T11:11:42;155219.28;;;24.55;67.75
54503;BME280;40411;50.090;21.954;2022-08-11T11:14:30;155141.78;;;24.24;65.41
54503;BME280;40411;50.090;21.954;2022-08-11T11:17:26;155329.00;;;24.98;65.44
54503;BME280;40411;50.090;21.954;2022-08-11T11:20:18;155345.81;;;25.05;68.34
54503;BME280;40411;50.090;21.954;2022-08-11T11:22:45;155505.94;;;25.68;62.62
54503;BME280;40411;50.090;21.954;2022-08-11T11:28:03;155860.13;;;27.08;58.65
54503;BME280;40411;50.090;21.954;2022-08-11T11:31:02;155914.41;;;27.30;60.53
54503;BME280;40411;50.090;21.954;2022-08-11T11:36:45;156032.09;;;27.76;51.77
54503;BME280;40411;50.090;21.954;2022-08-11T11:39:12;155781.22;;;26.77;52.53
54503;BME280;40411;50.090;21.954;2022-08-11T11:41:39;155976.47;;;27.54;54.78
54503;BME280;40411;50.090;21.954;2022-08-11T11:44:06;156020.44;;;27.72;55.52
54503;BME280;40411;50.090;21.954;2022-08-11T11:46:34;155767.03;;;26.71;55.22
54503;BME280;40411;50.090;21.954;2022-08-11T11:49:00;155754.13;;;26.66;55.98
54503;BME280;40411;50.090;21.954;2022-08-11T11:51:32;155540.81;;;25.82;57.71
54503;BME280;40411;50.090;21.954;2022-08-11T11:53:59;155441.38;;;25.42;58.16
54503;BME280;40411;50.090;21.954;2022-08-11T11:56:28;155326.44;;;24.97;59.42
54503;BME280;40411;50.090;21.954;2022-08-11T11:58:55;155251.53;;;24.67;62.01
54503;BME280;40411;50.090;21.954;2022-08-11T12:01:41;155401.34;;;25.27;60.85
54503;BME280;40411;50.090;21.954;2022-08-11T12:04:10;155388.47;;;25.22;60.00
54503;BME280;40411;50.090;21.954;2022-08-11T12:06:39;155189.50;;;24.43;62.91
54503;BME280;40411;50.090;21.954;2022-08-11T12:09:06;155146.91;;;24.26;61.91
54503;BME280;40411;50.090;21.954;2022-08-11T12:11:32;155105.63;;;24.09;62.67
54503;BME280;40411;50.090;21.954;2022-08-11T12:14:19;154990.75;;;23.64;65.28
54503;BME280;40411;50.090;21.954;2022-08-11T12:16:46;154922.34;;;23.37;67.88
54503;BME280;40411;50.090;21.954;2022-08-11T12:19:16;154935.28;;;23.42;69.50
54503;BME280;40411;50.090;21.954;2022-08-11T12:21:43;154904.31;;;23.30;71.58
54503;BME280;40411;50.090;21.954;2022-08-11T12:24:30;154819.19;;;22.96;69.44
54503;BME280;40411;50.090;21.954;2022-08-11T12:27:16;154794.63;;;22.86;70.62
54503;BME280;40411;50.090;21.954;2022-08-11T12:29:48;154803.63;;;22.90;71.26
54503;BME280;40411;50.090;21.954;2022-08-11T12:32:14;154801.06;;;22.89;67.43
54503;BME280;40411;50.090;21.954;2022-08-11T12:34:40;154837.22;;;23.03;66.79
54503;BME280;40411;50.090;21.954;2022-08-11T12:37:07;154834.66;;;23.02;72.59
54503;BME280;40411;50.090;21.954;2022-08-11T12:39:42;154807.53;;;22.91;76.09
54503;BME280;40411;50.090;21.954;2022-08-11T12:42:30;154767.53;;;22.75;73.63
54503;BME280;40411;50.090;21.954;2022-08-11T12:45:16;154774.00;;;22.78;67.90
54503;BME280;40411;50.090;21.954;2022-08-11T12:48:05;154806.25;;;22.91;74.86
54503;BME280;40411;50.090;21.954;2022-08-11T12:50:55;154775.28;;;22.79;73.68
54503;BME280;40411;50.090;21.954;2022-08-11T12:53:45;154992.03;;;23.64;72.92
54503;BME280;40411;50.090;21.954;2022-08-11T12:56:18;155177.94;;;24.38;69.87
54503;BME280;40411;50.090;21.954;2022-08-11T12:59:04;155498.22;;;25.65;66.86
54503;BME280;40411;50.090;21.954;2022-08-11T13:01:49;155606.78;;;26.08;57.71
54503;BME280;40411;50.090;21.954;2022-08-11T13:04:35;155858.78;;;27.08;57.80
54503;BME280;40411;50.090;21.954;2022-08-11T13:07:20;156092.91;;;28.00;55.58
54503;BME280;40411;50.090;21.954;2022-08-11T13:09:47;156214.53;;;28.48;52.66
54503;BME280;40411;50.090;21.954;2022-08-11T13:12:14;156255.94;;;28.65;49.39
54503;BME280;40411;50.090;21.954;2022-08-11T13:15:00;155914.41;;;27.30;50.59
54503;BME280;40411;50.090;21.954;2022-08-11T13:17:27;155785.13;;;26.79;50.94
54503;BME280;40411;50.090;21.954;2022-08-11T13:19:56;155737.31;;;26.60;47.91
54503;BME280;40411;50.090;21.954;2022-08-11T13:22:23;155748.94;;;26.64;50.49
54503;BME280;40411;50.090;21.954;2022-08-11T13:24:51;155878.19;;;27.15;49.37
54503;BME280;40411;50.090;21.954;2022-08-11T13:27:20;155813.56;;;26.90;52.07
54503;BME280;40411;50.090;21.954;2022-08-11T13:29:48;155830.34;;;26.96;52.95
54503;BME280;40411;50.090;21.954;2022-08-11T13:32:15;155609.34;;;26.09;54.78
54503;BME280;40411;50.090;21.954;2022-08-11T13:34:42;155380.72;;;25.18;58.28
54503;BME280;40411;50.090;21.954;2022-08-11T13:37:09;155237.34;;;24.62;61.62
54503;BME280;40411;50.090;21.954;2022-08-11T13:39:41;155015.34;;;23.74;69.38
54503;BME280;40411;50.090;21.954;2022-08-11T13:42:14;154857.88;;;23.11;73.93
54503;BME280;40411;50.090;21.954;2022-08-11T13:44:41;154821.78;;;22.97;76.18
54503;BME280;40411;50.090;21.954;2022-08-11T13:47:11;154786.91;;;22.83;76.41
54503;BME280;40411;50.090;21.954;2022-08-11T13:49:40;154706.97;;;22.51;78.72
54503;BME280;40411;50.090;21.954;2022-08-11T13:52:10;154668.25;;;22.36;78.55
54503;BME280;40411;50.090;21.954;2022-08-11T13:54:38;154641.19;;;22.25;80.13
54503;BME280;40411;50.090;21.954;2022-08-11T13:57:06;154700.50;;;22.49;79.83
54503;BME280;40411;50.090;21.954;2022-08-11T13:59:32;154625.72;;;22.19;79.31
54503;BME280;40411;50.090;21.954;2022-08-11T14:02:01;154561.22;;;21.94;80.70
54503;BME280;40411;50.090;21.954;2022-08-11T14:04:44;154553.50;;;21.91;79.39
54503;BME280;40411;50.090;21.954;2022-08-11T14:07:19;154605.03;;;22.11;79.41
54503;BME280;40411;50.090;21.954;2022-08-11T14:09:48;154547.06;;;21.88;80.35
54503;BME280;40411;50.090;21.954;2022-08-11T14:12:24;154483.91;;;21.63;84.29
54503;BME280;40411;50.090;21.954;2022-08-11T14:15:15;154468.44;;;21.57;87.83
54503;BME280;40411;50.090;21.954;2022-08-11T14:17:47;154414.25;;;21.35;87.00
54503;BME280;40411;50.090;21.954;2022-08-11T14:20:18;154388.47;;;21.25;87.66
54503;BME280;40411;50.090;21.954;2022-08-11T14:22:45;154357.56;;;21.13;88.43
54503;BME280;40411;50.090;21.954;2022-08-11T14:25:13;154195.22;;;20.48;100.00
54503;BME280;40411;50.090;21.954;2022-08-11T14:27:43;153944.09;;;19.49;100.00
54503;BME280;40411;50.090;21.954;2022-08-11T14:30:10;153752.34;;;18.72;100.00
54503;BME280;40411;50.090;21.954;2022-08-11T14:32:57;153709.88;;;18.56;100.00
54503;BME280;40411;50.090;21.954;2022-08-11T14:35:25;153628.81;;;18.23;100.00
54503;BME280;40411;50.090;21.954;2022-08-11T14:37:52;153563.25;;;17.97;100.00
54503;BME280;40411;50.090;21.954;2022-08-11T14:40:18;153533.66;;;17.85;100.00
54503;BME280;40411;50.090;21.954;2022-08-11T14:43:03;153559.38;;;17.96;100.00
54503;BME280;40411;50.090;21.954;2022-08-11T14:45:48;153572.25;;;18.01;100.00
54503;BME280;40411;50.090;21.954;2022-08-11T14:48:33;153531.09;;;17.84;100.00
54503;BME280;40411;50.090;21.954;2022-08-11T14:51:03;153515.66;;;17.78;100.00
54503;BME280;40411;50.090;21.954;2022-08-11T14:53:30;153513.03;;;17.77;100.00
54503;BME280;40411;50.090;21.954;2022-08-11T14:55:57;153486.06;;;17.67;100.00
54503;BME280;40411;50.090;21.954;2022-08-11T14:58:44;153568.38;;;17.99;100.00
54503;BME280;40411;50.090;21.954;2022-08-11T15:01:11;153613.41;;;18.17;100.00
54503;BME280;40411;50.090;21.954;2022-08-11T15:03:57;153608.25;;;18.15;100.00
54503;BME280;40411;50.090;21.954;2022-08-11T15:06:24;153613.41;;;18.17;100.00
54503;BME280;40411;50.090;21.954;2022-08-11T15:08:53;153597.97;;;18.11;100.00
54503;BME280;40411;50.090;21.954;2022-08-11T15:11:22;153617.22;;;18.19;100.00
54503;BME280;40411;50.090;21.954;2022-08-11T15:14:08;153590.28;;;18.08;100.00
54503;BME280;40411;50.090;21.954;2022-08-11T15:16:36;153608.25;;;18.15;100.00
54503;BME280;40411;50.090;21.954;2022-08-11T15:19:24;153628.81;;;18.23;100.00
54503;BME280;40411;50.090;21.954;2022-08-11T15:21:50;153599.25;;;18.12;100.00
54503;BME280;40411;50.090;21.954;2022-08-11T15:24:35;153540.06;;;17.88;100.00
54503;BME280;40411;50.090;21.954;2022-08-11T15:27:08;153545.22;;;17.90;100.00
54503;BME280;40411;50.090;21.954;2022-08-11T15:29:56;153564.53;;;17.98;100.00
54503;BME280;40411;50.090;21.954;2022-08-11T15:32:42;153585.13;;;18.06;100.00
54503;BME280;40411;50.090;21.954;2022-08-11T15:35:28;153631.38;;;18.24;100.00
54503;BME280;40411;50.090;21.954;2022-08-11T15:38:16;153666.09;;;18.38;100.00
54503;BME280;40411;50.090;21.954;2022-08-11T15:40:44;153704.72;;;18.53;100.00
54503;BME280;40411;50.090;21.954;2022-08-11T15:43:39;153690.56;;;18.48;100.00
54503;BME280;40411;50.090;21.954;2022-08-11T15:49:14;153594.09;;;18.09;100.00
54503;BME280;40411;50.090;21.954;2022-08-11T15:51:44;153649.41;;;18.31;100.00
54503;BME280;40411;50.090;21.954;2022-08-11T15:54:14;153627.56;;;18.23;100.00
54503;BME280;40411;50.090;21.954;2022-08-11T15:56:47;153600.53;;;18.12;100.00
54503;BME280;40411;50.090;21.954;2022-08-11T15:59:15;153661.00;;;18.36;100.00
54503;BME280;40411;50.090;21.954;2022-08-11T16:02:03;153659.69;;;18.36;100.00
54503;BME280;40411;50.090;21.954;2022-08-11T16:04:49;153682.88;;;18.45;100.00
54503;BME280;40411;50.090;21.954;2022-08-11T16:07:18;153695.72;;;18.50;100.00
54503;BME280;40411;50.090;21.954;2022-08-11T16:12:22;153657.13;;;18.35;100.00
54503;BME280;40411;50.090;21.954;2022-08-11T16:14:51;153627.56;;;18.23;100.00
54503;BME280;40411;50.090;21.954;2022-08-11T16:17:41;153659.69;;;18.36;100.00
54503;BME280;40411;50.090;21.954;2022-08-11T16:20:11;153608.25;;;18.15;100.00
54503;BME280;40411;50.090;21.954;2022-08-11T16:22:37;153596.66;;;18.11;100.00
54503;BME280;40411;50.090;21.954;2022-08-11T16:25:08;153559.38;;;17.96;100.00
54503;BME280;40411;50.090;21.954;2022-08-11T16:27:40;153533.66;;;17.85;100.00
54503;BME280;40411;50.090;21.954;2022-08-11T16:30:07;153511.75;;;17.77;100.00
54503;BME280;40411;50.090;21.954;2022-08-11T16:32:38;153531.09;;;17.84;100.00
54503;BME280;40411;50.090;21.954;2022-08-11T16:35:08;153513.03;;;17.77;100.00
54503;BME280;40411;50.090;21.954;2022-08-11T16:37:54;153487.34;;;17.67;100.00
54503;BME280;40411;50.090;21.954;2022-08-11T16:40:40;153411.47;;;17.37;100.00
54503;BME280;40411;50.090;21.954;2022-08-11T16:43:09;153437.19;;;17.47;100.00
54503;BME280;40411;50.090;21.954;2022-08-11T16:45:56;153388.34;;;17.28;100.00
54503;BME280;40411;50.090;21.954;2022-08-11T16:48:42;153381.91;;;17.25;100.00
54503;BME280;40411;50.090;21.954;2022-08-11T16:51:11;153439.75;;;17.48;100.00
54503;BME280;40411;50.090;21.954;2022-08-11T16:53:38;153428.16;;;17.43;100.00
54503;BME280;40411;50.090;21.954;2022-08-11T16:56:06;153347.22;;;17.11;100.00